sensor_id;sensor_type;location;lat;lon;timestamp;P1;durP1;ratioP1;P2;durP2;ratioP2
21326;SDS011;10822;51.532;6.770;2022-12-18T00:00:44;53.50;;;24.73;;
21326;SDS011;10822;51.532;6.770;2022-12-18T00:03:11;57.10;;;25.50;;
21326;SDS011;10822;51.532;6.770;2022-12-18T00:05:37;48.10;;;23.23;;
21326;SDS011;10822;51.532;6.770;2022-12-18T00:08:03;46.80;;;22.35;;
21326;SDS011;10822;51.532;6.770;2022-12-18T00:10:29;47.90;;;21.40;;
21326;SDS011;10822;51.532;6.770;2022-12-18T00:12:55;42.75;;;21.02;;
21326;SDS011;10822;51.532;6.770;2022-12-18T00:15:21;45.47;;;20.98;;
21326;SDS011;10822;51.532;6.770;2022-12-18T00:17:47;46.45;;;20.75;;
21326;SDS011;10822;51.532;6.770;2022-12-18T00:20:13;42.47;;;20.17;;
21326;SDS011;10822;51.532;6.770;2022-12-18T00:22:39;44.25;;;19.85;;
21326;SDS011;10822;51.532;6.770;2022-12-18T00:25:05;43.60;;;19.35;;
21326;SDS011;10822;51.532;6.770;2022-12-18T00:27:31;43.33;;;20.17;;
21326;SDS011;10822;51.532;6.770;2022-12-18T00:29:57;47.80;;;20.48;;
21326;SDS011;10822;51.532;6.770;2022-12-18T00:32:23;43.92;;;21.50;;
21326;SDS011;10822;51.532;6.770;2022-12-18T00:34:49;46.85;;;20.48;;
21326;SDS011;10822;51.532;6.770;2022-12-18T00:37:15;48.17;;;21.60;;
21326;SDS011;10822;51.532;6.770;2022-12-18T00:39:41;47.05;;;22.52;;
21326;SDS011;10822;51.532;6.770;2022-12-18T00:42:07;50.72;;;23.35;;
21326;SDS011;10822;51.532;6.770;2022-12-18T00:44:53;55.67;;;22.95;;
21326;SDS011;10822;51.532;6.770;2022-12-18T00:47:19;56.13;;;24.15;;
21326;SDS011;10822;51.532;6.770;2022-12-18T00:49:45;51.35;;;23.75;;
21326;SDS011;10822;51.532;6.770;2022-12-18T00:52:11;60.78;;;26.10;;
21326;SDS011;10822;51.532;6.770;2022-12-18T00:54:37;65.80;;;27.55;;
21326;SDS011;10822;51.532;6.770;2022-12-18T00:57:03;59.88;;;27.35;;
21326;SDS011;10822;51.532;6.770;2022-12-18T00:59:28;65.22;;;27.38;;
21326;SDS011;10822;51.532;6.770;2022-12-18T01:01:55;60.90;;;26.63;;
21326;SDS011;10822;51.532;6.770;2022-12-18T01:04:21;61.10;;;26.63;;
21326;SDS011;10822;51.532;6.770;2022-12-18T01:06:47;55.53;;;24.75;;
21326;SDS011;10822;51.532;6.770;2022-12-18T01:09:13;58.83;;;26.60;;
21326;SDS011;10822;51.532;6.770;2022-12-18T01:11:39;62.53;;;26.33;;
21326;SDS011;10822;51.532;6.770;2022-12-18T01:14:05;56.88;;;26.10;;
21326;SDS011;10822;51.532;6.770;2022-12-18T01:16:31;61.40;;;27.10;;
21326;SDS011;10822;51.532;6.770;2022-12-18T01:18:57;64.47;;;26.95;;
21326;SDS011;10822;51.532;6.770;2022-12-18T01:21:23;63.80;;;27.30;;
21326;SDS011;10822;51.532;6.770;2022-12-18T01:23:53;68.45;;;27.05;;
21326;SDS011;10822;51.532;6.770;2022-12-18T01:26:19;61.10;;;26.08;;
21326;SDS011;10822;51.532;6.770;2022-12-18T01:28:45;58.92;;;25.83;;
21326;SDS011;10822;51.532;6.770;2022-12-18T01:31:21;54.42;;;24.73;;
21326;SDS011;10822;51.532;6.770;2022-12-18T01:33:48;53.80;;;24.10;;
21326;SDS011;10822;51.532;6.770;2022-12-18T01:36:25;55.33;;;25.25;;
21326;SDS011;10822;51.532;6.770;2022-12-18T01:38:51;66.65;;;27.63;;
21326;SDS011;10822;51.532;6.770;2022-12-18T01:41:19;64.15;;;28.85;;
21326;SDS011;10822;51.532;6.770;2022-12-18T01:43:55;67.95;;;30.92;;
21326;SDS011;10822;51.532;6.770;2022-12-18T01:46:22;62.70;;;28.48;;
21326;SDS011;10822;51.532;6.770;2022-12-18T01:48:53;54.20;;;25.08;;
21326;SDS011;10822;51.532;6.770;2022-12-18T01:51:21;54.97;;;25.08;;
21326;SDS011;10822;51.532;6.770;2022-12-18T01:53:47;50.53;;;23.60;;
21326;SDS011;10822;51.532;6.770;2022-12-18T01:56:17;44.63;;;21.63;;
21326;SDS011;10822;51.532;6.770;2022-12-18T02:01:13;42.38;;;19.95;;
21326;SDS011;10822;51.532;6.770;2022-12-18T02:03:42;46.20;;;21.40;;
21326;SDS011;10822;51.532;6.770;2022-12-18T02:06:16;38.03;;;18.63;;
21326;SDS011;10822;51.532;6.770;2022-12-18T02:14:13;43.00;;;18.93;;
21326;SDS011;10822;51.532;6.770;2022-12-18T02:17:01;41.13;;;19.33;;
21326;SDS011;10822;51.532;6.770;2022-12-18T02:24:26;38.75;;;19.25;;
21326;SDS011;10822;51.532;6.770;2022-12-18T02:26:55;37.17;;;18.92;;
21326;SDS011;10822;51.532;6.770;2022-12-18T02:29:23;33.88;;;17.42;;
21326;SDS011;10822;51.532;6.770;2022-12-18T02:31:53;38.47;;;18.52;;
21326;SDS011;10822;51.532;6.770;2022-12-18T02:34:21;34.88;;;17.33;;
21326;SDS011;10822;51.532;6.770;2022-12-18T02:36:48;36.30;;;17.02;;
21326;SDS011;10822;51.532;6.770;2022-12-18T02:39:15;35.25;;;17.33;;
21326;SDS011;10822;51.532;6.770;2022-12-18T02:41:42;32.80;;;16.90;;
21326;SDS011;10822;51.532;6.770;2022-12-18T02:44:10;39.97;;;18.38;;
21326;SDS011;10822;51.532;6.770;2022-12-18T02:46:38;41.05;;;17.58;;
21326;SDS011;10822;51.532;6.770;2022-12-18T02:54:20;34.13;;;15.90;;
21326;SDS011;10822;51.532;6.770;2022-12-18T02:56:50;33.90;;;16.63;;
21326;SDS011;10822;51.532;6.770;2022-12-18T02:59:18;36.97;;;16.02;;
21326;SDS011;10822;51.532;6.770;2022-12-18T03:04:20;34.40;;;16.67;;
21326;SDS011;10822;51.532;6.770;2022-12-18T03:06:49;29.63;;;15.85;;
21326;SDS011;10822;51.532;6.770;2022-12-18T03:09:17;29.63;;;14.38;;
21326;SDS011;10822;51.532;6.770;2022-12-18T03:11:46;32.90;;;16.45;;
21326;SDS011;10822;51.532;6.770;2022-12-18T03:14:32;33.67;;;15.68;;
21326;SDS011;10822;51.532;6.770;2022-12-18T03:17:03;34.13;;;15.60;;
21326;SDS011;10822;51.532;6.770;2022-12-18T03:19:31;32.35;;;15.32;;
21326;SDS011;10822;51.532;6.770;2022-12-18T03:21:57;31.85;;;15.60;;
21326;SDS011;10822;51.532;6.770;2022-12-18T03:24:25;37.10;;;16.45;;
21326;SDS011;10822;51.532;6.770;2022-12-18T03:26:53;34.13;;;15.55;;
21326;SDS011;10822;51.532;6.770;2022-12-18T03:29:42;29.58;;;15.15;;
21326;SDS011;10822;51.532;6.770;2022-12-18T03:32:10;34.15;;;15.30;;
21326;SDS011;10822;51.532;6.770;2022-12-18T03:34:38;34.65;;;15.02;;
21326;SDS011;10822;51.532;6.770;2022-12-18T03:37:05;34.10;;;15.30;;
21326;SDS011;10822;51.532;6.770;2022-12-18T03:39:32;34.50;;;15.57;;
21326;SDS011;10822;51.532;6.770;2022-12-18T03:42:04;32.80;;;15.27;;
21326;SDS011;10822;51.532;6.770;2022-12-18T03:44:42;30.98;;;14.38;;
21326;SDS011;10822;51.532;6.770;2022-12-18T03:49:50;31.75;;;15.13;;
21326;SDS011;10822;51.532;6.770;2022-12-18T03:54:45;35.25;;;14.05;;
21326;SDS011;10822;51.532;6.770;2022-12-18T03:57:18;36.53;;;14.90;;
21326;SDS011;10822;51.532;6.770;2022-12-18T03:59:45;32.35;;;14.77;;
21326;SDS011;10822;51.532;6.770;2022-12-18T04:02:12;27.30;;;14.00;;
21326;SDS011;10822;51.532;6.770;2022-12-18T04:04:39;32.78;;;14.90;;
21326;SDS011;10822;51.532;6.770;2022-12-18T04:07:06;30.65;;;13.88;;
21326;SDS011;10822;51.532;6.770;2022-12-18T04:09:32;29.70;;;13.70;;
21326;SDS011;10822;51.532;6.770;2022-12-18T04:11:59;26.25;;;13.30;;
21326;SDS011;10822;51.532;6.770;2022-12-18T04:14:25;31.83;;;14.32;;
21326;SDS011;10822;51.532;6.770;2022-12-18T04:16:51;26.38;;;12.77;;
21326;SDS011;10822;51.532;6.770;2022-12-18T04:19:17;26.05;;;13.07;;
21326;SDS011;10822;51.532;6.770;2022-12-18T04:21:43;26.20;;;13.07;;
21326;SDS011;10822;51.532;6.770;2022-12-18T04:24:09;24.48;;;13.02;;
21326;SDS011;10822;51.532;6.770;2022-12-18T04:26:35;28.77;;;12.75;;
21326;SDS011;10822;51.532;6.770;2022-12-18T04:29:01;28.20;;;13.77;;
21326;SDS011;10822;51.532;6.770;2022-12-18T04:31:27;33.33;;;14.32;;
21326;SDS011;10822;51.532;6.770;2022-12-18T04:33:53;32.33;;;14.18;;
21326;SDS011;10822;51.532;6.770;2022-12-18T04:36:19;32.03;;;15.35;;
21326;SDS011;10822;51.532;6.770;2022-12-18T04:38:45;36.17;;;15.10;;
21326;SDS011;10822;51.532;6.770;2022-12-18T04:41:10;36.47;;;15.30;;
21326;SDS011;10822;51.532;6.770;2022-12-18T04:43:37;34.25;;;15.90;;
21326;SDS011;10822;51.532;6.770;2022-12-18T04:46:04;33.88;;;14.63;;
21326;SDS011;10822;51.532;6.770;2022-12-18T04:48:30;32.13;;;15.55;;
21326;SDS011;10822;51.532;6.770;2022-12-18T04:50:56;36.63;;;16.25;;
21326;SDS011;10822;51.532;6.770;2022-12-18T04:53:22;36.25;;;16.10;;
21326;SDS011;10822;51.532;6.770;2022-12-18T04:55:48;38.75;;;17.00;;
21326;SDS011;10822;51.532;6.770;2022-12-18T04:58:14;39.78;;;16.48;;
21326;SDS011;10822;51.532;6.770;2022-12-18T05:00:40;36.78;;;16.30;;
21326;SDS011;10822;51.532;6.770;2022-12-18T05:03:06;30.92;;;14.85;;
21326;SDS011;10822;51.532;6.770;2022-12-18T05:05:34;27.77;;;14.77;;
21326;SDS011;10822;51.532;6.770;2022-12-18T05:08:00;31.02;;;15.10;;
21326;SDS011;10822;51.532;6.770;2022-12-18T05:10:26;30.38;;;14.25;;
21326;SDS011;10822;51.532;6.770;2022-12-18T05:12:52;28.42;;;14.18;;
21326;SDS011;10822;51.532;6.770;2022-12-18T05:15:30;30.70;;;13.85;;
21326;SDS011;10822;51.532;6.770;2022-12-18T05:17:57;33.88;;;12.68;;
21326;SDS011;10822;51.532;6.770;2022-12-18T05:20:23;29.33;;;13.73;;
21326;SDS011;10822;51.532;6.770;2022-12-18T05:22:50;30.10;;;13.38;;
21326;SDS011;10822;51.532;6.770;2022-12-18T05:25:16;36.30;;;14.93;;
21326;SDS011;10822;51.532;6.770;2022-12-18T05:27:42;31.27;;;13.98;;
21326;SDS011;10822;51.532;6.770;2022-12-18T05:30:09;30.63;;;15.23;;
21326;SDS011;10822;51.532;6.770;2022-12-18T05:32:35;29.60;;;14.68;;
21326;SDS011;10822;51.532;6.770;2022-12-18T05:35:01;32.63;;;14.55;;
21326;SDS011;10822;51.532;6.770;2022-12-18T05:37:27;28.00;;;13.38;;
21326;SDS011;10822;51.532;6.770;2022-12-18T05:39:53;26.88;;;13.38;;
21326;SDS011;10822;51.532;6.770;2022-12-18T05:42:19;23.63;;;12.80;;
21326;SDS011;10822;51.532;6.770;2022-12-18T05:44:45;26.70;;;13.13;;
21326;SDS011;10822;51.532;6.770;2022-12-18T05:47:11;27.85;;;13.02;;
21326;SDS011;10822;51.532;6.770;2022-12-18T05:49:37;23.13;;;12.27;;
21326;SDS011;10822;51.532;6.770;2022-12-18T05:52:03;26.13;;;12.07;;
21326;SDS011;10822;51.532;6.770;2022-12-18T05:54:29;26.58;;;13.00;;
21326;SDS011;10822;51.532;6.770;2022-12-18T05:56:56;25.42;;;12.38;;
21326;SDS011;10822;51.532;6.770;2022-12-18T05:59:22;25.00;;;12.00;;
21326;SDS011;10822;51.532;6.770;2022-12-18T06:01:48;24.70;;;12.00;;
21326;SDS011;10822;51.532;6.770;2022-12-18T06:04:14;26.20;;;11.65;;
21326;SDS011;10822;51.532;6.770;2022-12-18T06:06:40;27.63;;;12.18;;
21326;SDS011;10822;51.532;6.770;2022-12-18T06:09:06;24.50;;;12.57;;
21326;SDS011;10822;51.532;6.770;2022-12-18T06:11:34;23.95;;;12.23;;
21326;SDS011;10822;51.532;6.770;2022-12-18T06:14:00;29.10;;;12.23;;
21326;SDS011;10822;51.532;6.770;2022-12-18T06:16:27;23.77;;;12.35;;
21326;SDS011;10822;51.532;6.770;2022-12-18T06:18:55;27.88;;;13.07;;
21326;SDS011;10822;51.532;6.770;2022-12-18T06:21:21;27.08;;;12.50;;
21326;SDS011;10822;51.532;6.770;2022-12-18T06:23:47;21.65;;;12.20;;
21326;SDS011;10822;51.532;6.770;2022-12-18T06:26:13;23.55;;;12.38;;
21326;SDS011;10822;51.532;6.770;2022-12-18T06:28:40;27.30;;;13.25;;
21326;SDS011;10822;51.532;6.770;2022-12-18T06:31:06;28.55;;;13.25;;
21326;SDS011;10822;51.532;6.770;2022-12-18T06:33:32;27.30;;;12.98;;
21326;SDS011;10822;51.532;6.770;2022-12-18T06:35:59;28.73;;;13.57;;
21326;SDS011;10822;51.532;6.770;2022-12-18T06:38:26;33.15;;;14.60;;
21326;SDS011;10822;51.532;6.770;2022-12-18T06:40:52;28.67;;;13.43;;
21326;SDS011;10822;51.532;6.770;2022-12-18T06:43:18;28.15;;;12.60;;
21326;SDS011;10822;51.532;6.770;2022-12-18T06:45:44;26.45;;;12.73;;
21326;SDS011;10822;51.532;6.770;2022-12-18T06:48:11;24.05;;;11.90;;
21326;SDS011;10822;51.532;6.770;2022-12-18T06:50:37;24.45;;;11.73;;
21326;SDS011;10822;51.532;6.770;2022-12-18T06:53:03;26.00;;;13.27;;
21326;SDS011;10822;51.532;6.770;2022-12-18T06:55:29;22.80;;;11.48;;
21326;SDS011;10822;51.532;6.770;2022-12-18T06:57:54;25.20;;;12.57;;
21326;SDS011;10822;51.532;6.770;2022-12-18T07:00:20;25.85;;;12.02;;
21326;SDS011;10822;51.532;6.770;2022-12-18T07:02:46;25.92;;;13.43;;
21326;SDS011;10822;51.532;6.770;2022-12-18T07:05:12;24.80;;;12.05;;
21326;SDS011;10822;51.532;6.770;2022-12-18T07:07:38;29.80;;;12.27;;
21326;SDS011;10822;51.532;6.770;2022-12-18T07:10:04;25.13;;;12.18;;
21326;SDS011;10822;51.532;6.770;2022-12-18T07:12:30;26.25;;;12.32;;
21326;SDS011;10822;51.532;6.770;2022-12-18T07:14:56;26.00;;;11.68;;
21326;SDS011;10822;51.532;6.770;2022-12-18T07:17:22;29.15;;;11.68;;
21326;SDS011;10822;51.532;6.770;2022-12-18T07:19:48;25.15;;;12.25;;
21326;SDS011;10822;51.532;6.770;2022-12-18T07:22:14;27.02;;;12.55;;
21326;SDS011;10822;51.532;6.770;2022-12-18T07:24:40;28.17;;;12.70;;
21326;SDS011;10822;51.532;6.770;2022-12-18T07:27:06;29.60;;;13.80;;
21326;SDS011;10822;51.532;6.770;2022-12-18T07:29:32;28.60;;;13.80;;
21326;SDS011;10822;51.532;6.770;2022-12-18T07:31:58;26.27;;;12.25;;
21326;SDS011;10822;51.532;6.770;2022-12-18T07:34:24;24.42;;;12.57;;
21326;SDS011;10822;51.532;6.770;2022-12-18T07:36:50;34.38;;;14.50;;
21326;SDS011;10822;51.532;6.770;2022-12-18T07:39:16;32.47;;;12.77;;
21326;SDS011;10822;51.532;6.770;2022-12-18T07:41:42;30.08;;;13.90;;
21326;SDS011;10822;51.532;6.770;2022-12-18T07:44:11;32.70;;;13.93;;
21326;SDS011;10822;51.532;6.770;2022-12-18T07:46:37;26.70;;;12.77;;
21326;SDS011;10822;51.532;6.770;2022-12-18T07:49:03;32.33;;;13.88;;
21326;SDS011;10822;51.532;6.770;2022-12-18T07:51:29;25.13;;;12.55;;
21326;SDS011;10822;51.532;6.770;2022-12-18T07:53:56;24.15;;;11.82;;
21326;SDS011;10822;51.532;6.770;2022-12-18T07:56:22;31.38;;;13.60;;
21326;SDS011;10822;51.532;6.770;2022-12-18T07:58:48;32.80;;;14.23;;
21326;SDS011;10822;51.532;6.770;2022-12-18T08:01:14;30.55;;;14.65;;
21326;SDS011;10822;51.532;6.770;2022-12-18T08:03:40;31.33;;;13.27;;
21326;SDS011;10822;51.532;6.770;2022-12-18T08:06:07;26.65;;;13.27;;
21326;SDS011;10822;51.532;6.770;2022-12-18T08:08:34;28.90;;;14.23;;
21326;SDS011;10822;51.532;6.770;2022-12-18T08:11:00;27.67;;;13.55;;
21326;SDS011;10822;51.532;6.770;2022-12-18T08:13:26;27.75;;;13.43;;
21326;SDS011;10822;51.532;6.770;2022-12-18T08:15:56;30.38;;;14.27;;
21326;SDS011;10822;51.532;6.770;2022-12-18T08:18:22;25.17;;;12.35;;
21326;SDS011;10822;51.532;6.770;2022-12-18T08:20:49;25.67;;;12.98;;
21326;SDS011;10822;51.532;6.770;2022-12-18T08:23:15;27.30;;;12.55;;
21326;SDS011;10822;51.532;6.770;2022-12-18T08:25:41;27.27;;;12.98;;
21326;SDS011;10822;51.532;6.770;2022-12-18T08:28:07;25.77;;;12.75;;
21326;SDS011;10822;51.532;6.770;2022-12-18T08:30:33;25.65;;;12.80;;
21326;SDS011;10822;51.532;6.770;2022-12-18T08:32:59;28.50;;;13.95;;
21326;SDS011;10822;51.532;6.770;2022-12-18T08:35:24;27.75;;;12.93;;
21326;SDS011;10822;51.532;6.770;2022-12-18T08:37:50;24.52;;;11.93;;
21326;SDS011;10822;51.532;6.770;2022-12-18T08:40:16;26.42;;;13.45;;
21326;SDS011;10822;51.532;6.770;2022-12-18T08:42:42;22.73;;;11.93;;
21326;SDS011;10822;51.532;6.770;2022-12-18T08:45:27;27.48;;;12.55;;
21326;SDS011;10822;51.532;6.770;2022-12-18T08:47:53;28.23;;;13.23;;
21326;SDS011;10822;51.532;6.770;2022-12-18T08:50:19;27.70;;;13.85;;
21326;SDS011;10822;51.532;6.770;2022-12-18T08:52:45;27.63;;;13.10;;
21326;SDS011;10822;51.532;6.770;2022-12-18T08:55:11;25.95;;;13.05;;
21326;SDS011;10822;51.532;6.770;2022-12-18T08:57:37;26.52;;;13.55;;
21326;SDS011;10822;51.532;6.770;2022-12-18T09:00:04;25.25;;;13.00;;
21326;SDS011;10822;51.532;6.770;2022-12-18T09:02:30;25.63;;;13.73;;
21326;SDS011;10822;51.532;6.770;2022-12-18T09:04:56;29.70;;;14.65;;
21326;SDS011;10822;51.532;6.770;2022-12-18T09:07:22;38.22;;;19.15;;
21326;SDS011;10822;51.532;6.770;2022-12-18T09:09:48;40.85;;;18.95;;
21326;SDS011;10822;51.532;6.770;2022-12-18T09:12:14;35.75;;;17.63;;
21326;SDS011;10822;51.532;6.770;2022-12-18T09:14:40;39.42;;;18.40;;
21326;SDS011;10822;51.532;6.770;2022-12-18T09:17:06;35.55;;;16.88;;
21326;SDS011;10822;51.532;6.770;2022-12-18T09:19:32;35.35;;;16.08;;
21326;SDS011;10822;51.532;6.770;2022-12-18T09:21:58;30.17;;;16.25;;
21326;SDS011;10822;51.532;6.770;2022-12-18T09:24:24;31.67;;;15.77;;
21326;SDS011;10822;51.532;6.770;2022-12-18T09:26:52;31.35;;;15.05;;
21326;SDS011;10822;51.532;6.770;2022-12-18T09:29:19;33.08;;;16.60;;
21326;SDS011;10822;51.532;6.770;2022-12-18T09:31:45;30.67;;;15.38;;
21326;SDS011;10822;51.532;6.770;2022-12-18T09:34:11;37.03;;;17.05;;
21326;SDS011;10822;51.532;6.770;2022-12-18T09:36:37;33.05;;;16.50;;
21326;SDS011;10822;51.532;6.770;2022-12-18T09:39:03;31.17;;;16.85;;
21326;SDS011;10822;51.532;6.770;2022-12-18T09:43:59;31.20;;;16.67;;
21326;SDS011;10822;51.532;6.770;2022-12-18T09:46:27;38.88;;;18.73;;
21326;SDS011;10822;51.532;6.770;2022-12-18T09:48:55;34.53;;;18.30;;
21326;SDS011;10822;51.532;6.770;2022-12-18T09:51:24;34.88;;;17.48;;
21326;SDS011;10822;51.532;6.770;2022-12-18T09:53:53;38.00;;;20.08;;
21326;SDS011;10822;51.532;6.770;2022-12-18T09:56:21;40.35;;;20.45;;
21326;SDS011;10822;51.532;6.770;2022-12-18T09:58:57;39.42;;;20.85;;
21326;SDS011;10822;51.532;6.770;2022-12-18T10:01:23;44.22;;;22.42;;
21326;SDS011;10822;51.532;6.770;2022-12-18T10:03:50;41.03;;;20.30;;
21326;SDS011;10822;51.532;6.770;2022-12-18T10:13:42;37.97;;;20.02;;
21326;SDS011;10822;51.532;6.770;2022-12-18T10:16:13;52.90;;;27.40;;
21326;SDS011;10822;51.532;6.770;2022-12-18T10:21:18;70.03;;;32.50;;
21326;SDS011;10822;51.532;6.770;2022-12-18T10:23:57;59.67;;;29.98;;
21326;SDS011;10822;51.532;6.770;2022-12-18T10:26:24;55.28;;;26.52;;
21326;SDS011;10822;51.532;6.770;2022-12-18T10:28:50;52.38;;;26.90;;
21326;SDS011;10822;51.532;6.770;2022-12-18T10:31:21;55.28;;;27.15;;
21326;SDS011;10822;51.532;6.770;2022-12-18T10:33:47;43.03;;;22.75;;
21326;SDS011;10822;51.532;6.770;2022-12-18T10:36:13;39.08;;;20.75;;
21326;SDS011;10822;51.532;6.770;2022-12-18T10:38:39;42.55;;;20.65;;
21326;SDS011;10822;51.532;6.770;2022-12-18T10:43:45;31.55;;;17.55;;
21326;SDS011;10822;51.532;6.770;2022-12-18T10:51:46;29.95;;;17.42;;
21326;SDS011;10822;51.532;6.770;2022-12-18T10:54:06;28.58;;;16.42;;
21326;SDS011;10822;51.532;6.770;2022-12-18T10:56:33;30.63;;;16.35;;
21326;SDS011;10822;51.532;6.770;2022-12-18T10:59:01;29.10;;;16.35;;
21326;SDS011;10822;51.532;6.770;2022-12-18T11:01:28;28.80;;;15.38;;
21326;SDS011;10822;51.532;6.770;2022-12-18T11:04:01;28.08;;;16.08;;
21326;SDS011;10822;51.532;6.770;2022-12-18T11:06:27;32.63;;;19.30;;
21326;SDS011;10822;51.532;6.770;2022-12-18T11:08:57;40.03;;;21.10;;
21326;SDS011;10822;51.532;6.770;2022-12-18T11:11:24;36.50;;;20.38;;
21326;SDS011;10822;51.532;6.770;2022-12-18T11:14:03;37.95;;;21.08;;
21326;SDS011;10822;51.532;6.770;2022-12-18T11:16:32;39.55;;;20.80;;
21326;SDS011;10822;51.532;6.770;2022-12-18T11:21:44;39.85;;;22.38;;
21326;SDS011;10822;51.532;6.770;2022-12-18T11:24:27;39.67;;;21.80;;
21326;SDS011;10822;51.532;6.770;2022-12-18T11:26:55;39.95;;;22.75;;
21326;SDS011;10822;51.532;6.770;2022-12-18T11:29:33;40.70;;;22.75;;
21326;SDS011;10822;51.532;6.770;2022-12-18T11:32:12;32.47;;;18.15;;
21326;SDS011;10822;51.532;6.770;2022-12-18T11:34:46;34.25;;;17.80;;
21326;SDS011;10822;51.532;6.770;2022-12-18T11:37:14;34.65;;;18.92;;
21326;SDS011;10822;51.532;6.770;2022-12-18T11:39:55;18.77;;;10.30;;
21326;SDS011;10822;51.532;6.770;2022-12-18T11:42:24;18.15;;;9.80;;
21326;SDS011;10822;51.532;6.770;2022-12-18T11:44:52;19.33;;;10.27;;
21326;SDS011;10822;51.532;6.770;2022-12-18T11:49:45;16.20;;;8.77;;
21326;SDS011;10822;51.532;6.770;2022-12-18T11:52:21;13.07;;;7.45;;
21326;SDS011;10822;51.532;6.770;2022-12-18T11:54:50;12.60;;;6.82;;
21326;SDS011;10822;51.532;6.770;2022-12-18T11:57:34;11.02;;;6.35;;
21326;SDS011;10822;51.532;6.770;2022-12-18T12:00:03;10.73;;;5.22;;
21326;SDS011;10822;51.532;6.770;2022-12-18T12:02:47;9.10;;;5.40;;
21326;SDS011;10822;51.532;6.770;2022-12-18T12:13:35;10.88;;;5.30;;
21326;SDS011;10822;51.532;6.770;2022-12-18T12:21:07;9.30;;;5.07;;
21326;SDS011;10822;51.532;6.770;2022-12-18T12:26:07;10.90;;;5.43;;
21326;SDS011;10822;51.532;6.770;2022-12-18T12:28:38;8.10;;;4.95;;
21326;SDS011;10822;51.532;6.770;2022-12-18T12:31:09;9.65;;;5.53;;
21326;SDS011;10822;51.532;6.770;2022-12-18T12:36:16;9.02;;;5.22;;
21326;SDS011;10822;51.532;6.770;2022-12-18T12:38:47;9.52;;;5.65;;
21326;SDS011;10822;51.532;6.770;2022-12-18T12:41:17;11.57;;;6.00;;
21326;SDS011;10822;51.532;6.770;2022-12-18T12:44:05;9.32;;;5.00;;
21326;SDS011;10822;51.532;6.770;2022-12-18T12:46:32;10.82;;;5.75;;
21326;SDS011;10822;51.532;6.770;2022-12-18T12:49:01;10.23;;;5.20;;
21326;SDS011;10822;51.532;6.770;2022-12-18T12:51:30;9.95;;;5.50;;
21326;SDS011;10822;51.532;6.770;2022-12-18T12:53:58;10.35;;;5.82;;
21326;SDS011;10822;51.532;6.770;2022-12-18T12:56:26;10.52;;;5.60;;
21326;SDS011;10822;51.532;6.770;2022-12-18T13:04:23;8.60;;;4.95;;
21326;SDS011;10822;51.532;6.770;2022-12-18T13:09:24;11.10;;;5.82;;
21326;SDS011;10822;51.532;6.770;2022-12-18T13:11:50;11.57;;;6.45;;
21326;SDS011;10822;51.532;6.770;2022-12-18T13:14:38;9.48;;;5.30;;
21326;SDS011;10822;51.532;6.770;2022-12-18T13:20:02;11.07;;;6.07;;
21326;SDS011;10822;51.532;6.770;2022-12-18T13:24:54;10.65;;;5.70;;
21326;SDS011;10822;51.532;6.770;2022-12-18T13:30:33;12.25;;;6.70;;
21326;SDS011;10822;51.532;6.770;2022-12-18T13:33:13;12.23;;;6.30;;
21326;SDS011;10822;51.532;6.770;2022-12-18T13:35:38;13.95;;;6.18;;
21326;SDS011;10822;51.532;6.770;2022-12-18T13:48:14;13.93;;;7.32;;
21326;SDS011;10822;51.532;6.770;2022-12-18T13:50:41;15.25;;;8.02;;
21326;SDS011;10822;51.532;6.770;2022-12-18T13:53:11;13.63;;;7.43;;
21326;SDS011;10822;51.532;6.770;2022-12-18T13:55:43;14.15;;;7.20;;
21326;SDS011;10822;51.532;6.770;2022-12-18T13:58:11;15.45;;;8.23;;
21326;SDS011;10822;51.532;6.770;2022-12-18T14:00:41;13.15;;;7.47;;
21326;SDS011;10822;51.532;6.770;2022-12-18T14:03:17;13.65;;;7.45;;
21326;SDS011;10822;51.532;6.770;2022-12-18T14:05:44;12.60;;;7.13;;
21326;SDS011;10822;51.532;6.770;2022-12-18T14:08:12;11.68;;;6.82;;
21326;SDS011;10822;51.532;6.770;2022-12-18T14:10:39;15.77;;;7.95;;
21326;SDS011;10822;51.532;6.770;2022-12-18T14:13:06;11.95;;;6.78;;
21326;SDS011;10822;51.532;6.770;2022-12-18T14:15:41;13.38;;;7.93;;
21326;SDS011;10822;51.532;6.770;2022-12-18T14:20:45;16.33;;;8.18;;
21326;SDS011;10822;51.532;6.770;2022-12-18T14:23:32;14.77;;;8.25;;
21326;SDS011;10822;51.532;6.770;2022-12-18T14:25:59;15.45;;;8.63;;
21326;SDS011;10822;51.532;6.770;2022-12-18T14:28:25;13.73;;;8.10;;
21326;SDS011;10822;51.532;6.770;2022-12-18T14:30:51;13.27;;;7.47;;
21326;SDS011;10822;51.532;6.770;2022-12-18T14:33:21;12.95;;;7.70;;
21326;SDS011;10822;51.532;6.770;2022-12-18T14:35:58;16.65;;;9.40;;
21326;SDS011;10822;51.532;6.770;2022-12-18T14:40:52;16.85;;;9.30;;
21326;SDS011;10822;51.532;6.770;2022-12-18T14:43:18;14.60;;;7.88;;
21326;SDS011;10822;51.532;6.770;2022-12-18T14:45:44;17.95;;;8.93;;
21326;SDS011;10822;51.532;6.770;2022-12-18T14:50:37;13.20;;;7.70;;
21326;SDS011;10822;51.532;6.770;2022-12-18T14:53:03;18.38;;;9.88;;
21326;SDS011;10822;51.532;6.770;2022-12-18T14:55:30;15.45;;;8.35;;
21326;SDS011;10822;51.532;6.770;2022-12-18T14:57:56;17.13;;;8.90;;
21326;SDS011;10822;51.532;6.770;2022-12-18T15:00:22;14.10;;;8.70;;
21326;SDS011;10822;51.532;6.770;2022-12-18T15:02:50;18.10;;;9.52;;
21326;SDS011;10822;51.532;6.770;2022-12-18T15:05:19;18.17;;;9.45;;
21326;SDS011;10822;51.532;6.770;2022-12-18T15:07:46;15.77;;;9.05;;
21326;SDS011;10822;51.532;6.770;2022-12-18T15:12:39;16.58;;;8.70;;
21326;SDS011;10822;51.532;6.770;2022-12-18T15:17:57;16.75;;;9.00;;
21326;SDS011;10822;51.532;6.770;2022-12-18T15:20:24;20.40;;;8.52;;
21326;SDS011;10822;51.532;6.770;2022-12-18T15:22:49;18.23;;;9.50;;
21326;SDS011;10822;51.532;6.770;2022-12-18T15:25:31;21.35;;;11.80;;
21326;SDS011;10822;51.532;6.770;2022-12-18T15:27:57;18.13;;;10.07;;
21326;SDS011;10822;51.532;6.770;2022-12-18T15:30:24;18.45;;;10.27;;
21326;SDS011;10822;51.532;6.770;2022-12-18T15:32:51;20.15;;;11.23;;
21326;SDS011;10822;51.532;6.770;2022-12-18T15:35:19;19.25;;;10.20;;
21326;SDS011;10822;51.532;6.770;2022-12-18T15:37:45;18.77;;;10.20;;
21326;SDS011;10822;51.532;6.770;2022-12-18T15:40:12;17.65;;;10.18;;
21326;SDS011;10822;51.532;6.770;2022-12-18T15:42:39;18.83;;;9.88;;
21326;SDS011;10822;51.532;6.770;2022-12-18T15:45:23;19.35;;;9.52;;
21326;SDS011;10822;51.532;6.770;2022-12-18T15:47:49;17.00;;;9.43;;
21326;SDS011;10822;51.532;6.770;2022-12-18T15:50:15;17.83;;;9.32;;
21326;SDS011;10822;51.532;6.770;2022-12-18T15:52:43;20.38;;;9.57;;
21326;SDS011;10822;51.532;6.770;2022-12-18T15:55:16;15.05;;;9.02;;
21326;SDS011;10822;51.532;6.770;2022-12-18T15:58:01;16.05;;;8.75;;
21326;SDS011;10822;51.532;6.770;2022-12-18T16:00:27;19.17;;;9.40;;
21326;SDS011;10822;51.532;6.770;2022-12-18T16:02:53;16.30;;;9.70;;
21326;SDS011;10822;51.532;6.770;2022-12-18T16:05:19;17.85;;;9.60;;
21326;SDS011;10822;51.532;6.770;2022-12-18T16:07:46;19.63;;;10.73;;
21326;SDS011;10822;51.532;6.770;2022-12-18T16:10:12;16.58;;;9.13;;
21326;SDS011;10822;51.532;6.770;2022-12-18T16:12:38;19.10;;;10.00;;
21326;SDS011;10822;51.532;6.770;2022-12-18T16:15:05;18.08;;;10.13;;
21326;SDS011;10822;51.532;6.770;2022-12-18T16:17:31;16.42;;;9.57;;